sensor_id;sensor_type;location;lat;lon;timestamp;temperature;humidity
13458;DHT22;6801;53.018;11.560;2022-09-27T00:00:58;13.40;69.70
13458;DHT22;6801;53.018;11.560;2022-09-27T00:03:25;13.40;69.70
13458;DHT22;6801;53.018;11.560;2022-09-27T00:06:02;13.40;69.80
13458;DHT22;6801;53.018;11.560;2022-09-27T00:08:31;13.30;69.90
13458;DHT22;6801;53.018;11.560;2022-09-27T00:10:59;13.40;70.00
13458;DHT22;6801;53.018;11.560;2022-09-27T00:13:27;13.30;70.10
13458;DHT22;6801;53.018;11.560;2022-09-27T00:15:56;13.30;70.20
13458;DHT22;6801;53.018;11.560;2022-09-27T00:18:23;13.30;70.20
13458;DHT22;6801;53.018;11.560;2022-09-27T00:20:50;13.30;70.30
13458;DHT22;6801;53.018;11.560;2022-09-27T00:23:18;13.20;70.30
13458;DHT22;6801;53.018;11.560;2022-09-27T00:25:54;13.30;70.40
13458;DHT22;6801;53.018;11.560;2022-09-27T00:28:22;13.30;70.40
13458;DHT22;6801;53.018;11.560;2022-09-27T00:30:49;13.30;70.50
13458;DHT22;6801;53.018;11.560;2022-09-27T00:33:16;13.20;70.50
13458;DHT22;6801;53.018;11.560;2022-09-27T00:35:43;13.20;70.60
13458;DHT22;6801;53.018;11.560;2022-09-27T00:38:10;13.20;70.60
13458;DHT22;6801;53.018;11.560;2022-09-27T00:40:39;13.20;70.70
13458;DHT22;6801;53.018;11.560;2022-09-27T00:43:14;13.20;70.80
13458;DHT22;6801;53.018;11.560;2022-09-27T00:45:42;13.20;70.80
13458;DHT22;6801;53.018;11.560;2022-09-27T00:48:13;13.20;70.80
13458;DHT22;6801;53.018;11.560;2022-09-27T00:50:44;13.20;70.90
13458;DHT22;6801;53.018;11.560;2022-09-27T00:53:17;13.20;71.00
13458;DHT22;6801;53.018;11.560;2022-09-27T00:55:49;13.20;71.10
13458;DHT22;6801;53.018;11.560;2022-09-27T00:58:22;13.10;71.10
13458;DHT22;6801;53.018;11.560;2022-09-27T01:00:54;13.10;71.10
13458;DHT22;6801;53.018;11.560;2022-09-27T01:03:29;13.10;71.20
13458;DHT22;6801;53.018;11.560;2022-09-27T01:05:59;13.20;71.30
13458;DHT22;6801;53.018;11.560;2022-09-27T01:08:26;13.10;71.40
13458;DHT22;6801;53.018;11.560;2022-09-27T01:11:06;13.10;71.60
13458;DHT22;6801;53.018;11.560;2022-09-27T01:13:41;13.10;71.70
13458;DHT22;6801;53.018;11.560;2022-09-27T01:16:14;13.10;71.80
13458;DHT22;6801;53.018;11.560;2022-09-27T01:18:54;13.10;71.90
13458;DHT22;6801;53.018;11.560;2022-09-27T01:21:36;13.10;72.00
13458;DHT22;6801;53.018;11.560;2022-09-27T01:24:43;13.10;72.10
13458;DHT22;6801;53.018;11.560;2022-09-27T01:30:33;13.00;72.40
13458;DHT22;6801;53.018;11.560;2022-09-27T01:33:16;13.00;72.40
13458;DHT22;6801;53.018;11.560;2022-09-27T01:35:55;13.00;72.60
13458;DHT22;6801;53.018;11.560;2022-09-27T01:38:30;13.00;72.70
13458;DHT22;6801;53.018;11.560;2022-09-27T01:41:05;13.00;72.80
13458;DHT22;6801;53.018;11.560;2022-09-27T01:43:43;13.00;72.90
13458;DHT22;6801;53.018;11.560;2022-09-27T01:46:16;13.00;73.10
13458;DHT22;6801;53.018;11.560;2022-09-27T01:49:08;12.90;73.20
13458;DHT22;6801;53.018;11.560;2022-09-27T01:51:40;12.90;73.30
13458;DHT22;6801;53.018;11.560;2022-09-27T01:54:11;12.90;73.40
13458;DHT22;6801;53.018;11.560;2022-09-27T01:56:50;12.90;73.50
13458;DHT22;6801;53.018;11.560;2022-09-27T01:59:30;12.90;73.70
13458;DHT22;6801;53.018;11.560;2022-09-27T02:02:28;12.90;73.80
13458;DHT22;6801;53.018;11.560;2022-09-27T02:05:27;12.90;73.90
13458;DHT22;6801;53.018;11.560;2022-09-27T02:08:03;12.80;74.10
13458;DHT22;6801;53.018;11.560;2022-09-27T02:10:33;12.80;74.10
13458;DHT22;6801;53.018;11.560;2022-09-27T02:13:11;12.80;74.20
13458;DHT22;6801;53.018;11.560;2022-09-27T02:15:47;12.80;74.20
13458;DHT22;6801;53.018;11.560;2022-09-27T02:18:41;12.80;74.00
13458;DHT22;6801;53.018;11.560;2022-09-27T02:21:14;12.70;73.90
13458;DHT22;6801;53.018;11.560;2022-09-27T02:23:47;12.80;74.00
13458;DHT22;6801;53.018;11.560;2022-09-27T02:26:18;12.80;74.10
13458;DHT22;6801;53.018;11.560;2022-09-27T02:28:51;12.80;74.20
13458;DHT22;6801;53.018;11.560;2022-09-27T02:31:29;12.70;74.30
13458;DHT22;6801;53.018;11.560;2022-09-27T02:34:02;12.80;74.20
13458;DHT22;6801;53.018;11.560;2022-09-27T02:36:30;12.70;74.30
13458;DHT22;6801;53.018;11.560;2022-09-27T02:38:57;12.70;74.30
13458;DHT22;6801;53.018;11.560;2022-09-27T02:41:26;12.70;74.30
13458;DHT22;6801;53.018;11.560;2022-09-27T02:43:55;12.70;74.30
13458;DHT22;6801;53.018;11.560;2022-09-27T02:46:39;12.70;74.30
13458;DHT22;6801;53.018;11.560;2022-09-27T02:49:25;12.70;74.50
13458;DHT22;6801;53.018;11.560;2022-09-27T02:52:13;12.70;74.70
13458;DHT22;6801;53.018;11.560;2022-09-27T02:54:48;12.70;74.60
13458;DHT22;6801;53.018;11.560;2022-09-27T02:57:50;12.70;74.50
13458;DHT22;6801;53.018;11.560;2022-09-27T03:00:30;12.70;74.40
13458;DHT22;6801;53.018;11.560;2022-09-27T03:03:25;12.70;74.40
13458;DHT22;6801;53.018;11.560;2022-09-27T03:06:03;12.70;74.50
13458;DHT22;6801;53.018;11.560;2022-09-27T03:08:30;12.70;74.70
13458;DHT22;6801;53.018;11.560;2022-09-27T03:10:58;12.70;74.90
13458;DHT22;6801;53.018;11.560;2022-09-27T03:13:25;12.70;74.90
13458;DHT22;6801;53.018;11.560;2022-09-27T03:15:54;12.70;74.90
13458;DHT22;6801;53.018;11.560;2022-09-27T03:18:40;12.70;74.90
13458;DHT22;6801;53.018;11.560;2022-09-27T03:21:27;12.70;75.00
13458;DHT22;6801;53.018;11.560;2022-09-27T03:23:54;12.70;75.10
13458;DHT22;6801;53.018;11.560;2022-09-27T03:26:21;12.70;75.10
13458;DHT22;6801;53.018;11.560;2022-09-27T03:28:48;12.60;75.10
13458;DHT22;6801;53.018;11.560;2022-09-27T03:31:15;12.70;75.20
13458;DHT22;6801;53.018;11.560;2022-09-27T03:34:02;12.70;75.30
13458;DHT22;6801;53.018;11.560;2022-09-27T03:36:30;12.70;75.30
13458;DHT22;6801;53.018;11.560;2022-09-27T03:38:57;12.70;75.30
13458;DHT22;6801;53.018;11.560;2022-09-27T03:41:25;12.60;75.40
13458;DHT22;6801;53.018;11.560;2022-09-27T03:43:52;12.60;75.60
13458;DHT22;6801;53.018;11.560;2022-09-27T03:46:21;12.70;75.60
13458;DHT22;6801;53.018;11.560;2022-09-27T03:48:48;12.60;75.70
13458;DHT22;6801;53.018;11.560;2022-09-27T03:51:15;12.60;75.80
13458;DHT22;6801;53.018;11.560;2022-09-27T03:53:43;12.60;76.00
13458;DHT22;6801;53.018;11.560;2022-09-27T03:56:10;12.70;76.00
13458;DHT22;6801;53.018;11.560;2022-09-27T03:58:38;12.60;76.00
13458;DHT22;6801;53.018;11.560;2022-09-27T04:01:05;12.70;76.00
13458;DHT22;6801;53.018;11.560;2022-09-27T04:03:33;12.60;76.10
13458;DHT22;6801;53.018;11.560;2022-09-27T04:06:09;12.60;76.20
13458;DHT22;6801;53.018;11.560;2022-09-27T04:08:40;12.60;76.30
13458;DHT22;6801;53.018;11.560;2022-09-27T04:11:10;12.70;76.50
13458;DHT22;6801;53.018;11.560;2022-09-27T04:13:39;12.60;76.60
13458;DHT22;6801;53.018;11.560;2022-09-27T04:16:09;12.70;76.70
13458;DHT22;6801;53.018;11.560;2022-09-27T04:19:14;12.60;76.70
13458;DHT22;6801;53.018;11.560;2022-09-27T04:21:47;12.60;76.80
13458;DHT22;6801;53.018;11.560;2022-09-27T04:24:16;12.60;76.90
13458;DHT22;6801;53.018;11.560;2022-09-27T04:26:55;12.60;77.10
13458;DHT22;6801;53.018;11.560;2022-09-27T04:29:25;12.60;77.30
13458;DHT22;6801;53.018;11.560;2022-09-27T04:31:53;12.60;77.50
13458;DHT22;6801;53.018;11.560;2022-09-27T04:34:20;12.50;77.60
13458;DHT22;6801;53.018;11.560;2022-09-27T04:37:09;12.60;77.80
13458;DHT22;6801;53.018;11.560;2022-09-27T04:39:39;12.50;77.90
13458;DHT22;6801;53.018;11.560;2022-09-27T04:42:07;12.50;78.10
13458;DHT22;6801;53.018;11.560;2022-09-27T04:44:35;12.50;78.10
13458;DHT22;6801;53.018;11.560;2022-09-27T04:47:02;12.50;78.10
13458;DHT22;6801;53.018;11.560;2022-09-27T04:49:28;12.50;78.20
13458;DHT22;6801;53.018;11.560;2022-09-27T04:51:55;12.50;78.30
13458;DHT22;6801;53.018;11.560;2022-09-27T04:54:22;12.50;78.40
13458;DHT22;6801;53.018;11.560;2022-09-27T04:56:59;12.50;78.40
13458;DHT22;6801;53.018;11.560;2022-09-27T04:59:27;12.50;78.60
13458;DHT22;6801;53.018;11.560;2022-09-27T05:01:54;12.40;78.50
13458;DHT22;6801;53.018;11.560;2022-09-27T05:04:56;12.50;78.60
13458;DHT22;6801;53.018;11.560;2022-09-27T05:07:24;12.40;78.80
13458;DHT22;6801;53.018;11.560;2022-09-27T05:09:55;12.50;78.90
13458;DHT22;6801;53.018;11.560;2022-09-27T05:12:22;12.40;79.00
13458;DHT22;6801;53.018;11.560;2022-09-27T05:14:58;12.50;78.90
13458;DHT22;6801;53.018;11.560;2022-09-27T05:17:50;12.40;79.00
13458;DHT22;6801;53.018;11.560;2022-09-27T05:20:17;12.40;78.80
13458;DHT22;6801;53.018;11.560;2022-09-27T05:22:58;12.40;78.80
13458;DHT22;6801;53.018;11.560;2022-09-27T05:25:25;12.40;78.90
13458;DHT22;6801;53.018;11.560;2022-09-27T05:27:53;12.40;79.00
13458;DHT22;6801;53.018;11.560;2022-09-27T05:30:21;12.40;79.00
13458;DHT22;6801;53.018;11.560;2022-09-27T05:32:52;12.40;78.90
13458;DHT22;6801;53.018;11.560;2022-09-27T05:35:25;12.40;78.90
13458;DHT22;6801;53.018;11.560;2022-09-27T05:37:55;12.40;78.80
13458;DHT22;6801;53.018;11.560;2022-09-27T05:40:23;12.40;79.00
13458;DHT22;6801;53.018;11.560;2022-09-27T05:42:51;12.40;79.10
13458;DHT22;6801;53.018;11.560;2022-09-27T05:45:19;12.40;79.20
13458;DHT22;6801;53.018;11.560;2022-09-27T05:47:57;12.40;79.30
13458;DHT22;6801;53.018;11.560;2022-09-27T05:50:26;12.40;79.40
13458;DHT22;6801;53.018;11.560;2022-09-27T05:52:54;12.40;79.30
13458;DHT22;6801;53.018;11.560;2022-09-27T05:55:22;12.40;79.30
13458;DHT22;6801;53.018;11.560;2022-09-27T05:57:54;12.40;79.30
13458;DHT22;6801;53.018;11.560;2022-09-27T06:00:24;12.40;79.40
13458;DHT22;6801;53.018;11.560;2022-09-27T06:02:57;12.40;79.40
13458;DHT22;6801;53.018;11.560;2022-09-27T06:05:43;12.40;79.40
13458;DHT22;6801;53.018;11.560;2022-09-27T06:08:31;12.40;79.50
13458;DHT22;6801;53.018;11.560;2022-09-27T06:11:00;12.40;79.60
13458;DHT22;6801;53.018;11.560;2022-09-27T06:13:29;12.40;79.60
13458;DHT22;6801;53.018;11.560;2022-09-27T06:15:58;12.40;79.70
13458;DHT22;6801;53.018;11.560;2022-09-27T06:18:27;12.50;79.70
13458;DHT22;6801;53.018;11.560;2022-09-27T06:20:54;12.40;79.80
13458;DHT22;6801;53.018;11.560;2022-09-27T06:23:22;12.50;79.90
13458;DHT22;6801;53.018;11.560;2022-09-27T06:25:50;12.40;79.80
13458;DHT22;6801;53.018;11.560;2022-09-27T06:28:40;12.40;79.90
13458;DHT22;6801;53.018;11.560;2022-09-27T06:31:07;12.50;80.00
13458;DHT22;6801;53.018;11.560;2022-09-27T06:33:48;12.40;80.00
13458;DHT22;6801;53.018;11.560;2022-09-27T06:36:16;12.40;79.90
13458;DHT22;6801;53.018;11.560;2022-09-27T06:38:43;12.40;80.00
13458;DHT22;6801;53.018;11.560;2022-09-27T06:41:28;12.40;80.10
13458;DHT22;6801;53.018;11.560;2022-09-27T06:44:09;12.50;80.10
13458;DHT22;6801;53.018;11.560;2022-09-27T06:46:56;12.40;80.00
13458;DHT22;6801;53.018;11.560;2022-09-27T06:49:42;12.50;80.10
13458;DHT22;6801;53.018;11.560;2022-09-27T06:52:09;12.50;80.10
13458;DHT22;6801;53.018;11.560;2022-09-27T06:54:36;12.50;80.10
13458;DHT22;6801;53.018;11.560;2022-09-27T06:57:04;12.50;80.20
13458;DHT22;6801;53.018;11.560;2022-09-27T06:59:31;12.50;80.40
13458;DHT22;6801;53.018;11.560;2022-09-27T07:02:34;12.50;80.40
13458;DHT22;6801;53.018;11.560;2022-09-27T07:05:19;12.50;80.50
13458;DHT22;6801;53.018;11.560;2022-09-27T07:08:06;12.50;80.40
13458;DHT22;6801;53.018;11.560;2022-09-27T07:10:35;12.50;80.50
13458;DHT22;6801;53.018;11.560;2022-09-27T07:13:03;12.50;80.50
13458;DHT22;6801;53.018;11.560;2022-09-27T07:15:32;12.50;80.40
13458;DHT22;6801;53.018;11.560;2022-09-27T07:18:05;12.50;80.40
13458;DHT22;6801;53.018;11.560;2022-09-27T07:20:34;12.50;80.30
13458;DHT22;6801;53.018;11.560;2022-09-27T07:23:03;12.60;80.40
13458;DHT22;6801;53.018;11.560;2022-09-27T07:25:32;12.60;80.30
13458;DHT22;6801;53.018;11.560;2022-09-27T07:28:00;12.70;80.40
13458;DHT22;6801;53.018;11.560;2022-09-27T07:30:28;12.70;80.40
13458;DHT22;6801;53.018;11.560;2022-09-27T07:32:56;12.70;80.40
13458;DHT22;6801;53.018;11.560;2022-09-27T07:35:24;12.70;80.40
13458;DHT22;6801;53.018;11.560;2022-09-27T07:37:54;12.70;80.40
13458;DHT22;6801;53.018;11.560;2022-09-27T07:40:22;12.70;80.40
13458;DHT22;6801;53.018;11.560;2022-09-27T07:42:53;12.80;80.30
13458;DHT22;6801;53.018;11.560;2022-09-27T07:45:20;12.70;80.20
13458;DHT22;6801;53.018;11.560;2022-09-27T07:48:03;12.80;80.30
13458;DHT22;6801;53.018;11.560;2022-09-27T07:50:51;12.80;80.40
13458;DHT22;6801;53.018;11.560;2022-09-27T07:53:39;12.80;80.40
13458;DHT22;6801;53.018;11.560;2022-09-27T07:56:29;12.80;80.40
13458;DHT22;6801;53.018;11.560;2022-09-27T07:58:56;12.90;80.40
13458;DHT22;6801;53.018;11.560;2022-09-27T08:01:23;12.90;80.40
13458;DHT22;6801;53.018;11.560;2022-09-27T08:03:51;12.90;80.30
13458;DHT22;6801;53.018;11.560;2022-09-27T08:06:19;12.90;80.20
13458;DHT22;6801;53.018;11.560;2022-09-27T08:08:48;12.90;80.10
13458;DHT22;6801;53.018;11.560;2022-09-27T08:11:17;12.90;80.20
13458;DHT22;6801;53.018;11.560;2022-09-27T08:13:46;13.00;80.00
13458;DHT22;6801;53.018;11.560;2022-09-27T08:16:18;13.00;80.10
13458;DHT22;6801;53.018;11.560;2022-09-27T08:19:08;13.00;80.00
13458;DHT22;6801;53.018;11.560;2022-09-27T08:21:42;13.00;80.10
13458;DHT22;6801;53.018;11.560;2022-09-27T08:24:14;13.00;79.90
13458;DHT22;6801;53.018;11.560;2022-09-27T08:27:03;13.00;79.70
13458;DHT22;6801;53.018;11.560;2022-09-27T08:29:52;13.00;79.40
13458;DHT22;6801;53.018;11.560;2022-09-27T08:32:19;13.00;79.30
13458;DHT22;6801;53.018;11.560;2022-09-27T08:34:46;13.00;79.50
13458;DHT22;6801;53.018;11.560;2022-09-27T08:37:13;13.00;79.60
13458;DHT22;6801;53.018;11.560;2022-09-27T08:39:42;13.00;79.70
13458;DHT22;6801;53.018;11.560;2022-09-27T08:42:17;13.00;79.70
13458;DHT22;6801;53.018;11.560;2022-09-27T08:44:49;13.10;79.70
13458;DHT22;6801;53.018;11.560;2022-09-27T08:47:22;13.10;79.60
13458;DHT22;6801;53.018;11.560;2022-09-27T08:49:54;13.20;79.40
13458;DHT22;6801;53.018;11.560;2022-09-27T08:52:27;13.20;79.40
13458;DHT22;6801;53.018;11.560;2022-09-27T08:55:02;13.20;79.40
13458;DHT22;6801;53.018;11.560;2022-09-27T08:57:30;13.30;79.30
13458;DHT22;6801;53.018;11.560;2022-09-27T09:00:02;13.30;79.30
13458;DHT22;6801;53.018;11.560;2022-09-27T09:02:30;13.30;79.20
13458;DHT22;6801;53.018;11.560;2022-09-27T09:05:00;13.40;78.90
13458;DHT22;6801;53.018;11.560;2022-09-27T09:07:41;13.40;78.80
13458;DHT22;6801;53.018;11.560;2022-09-27T09:10:31;13.50;78.80
13458;DHT22;6801;53.018;11.560;2022-09-27T09:13:24;13.50;78.70
13458;DHT22;6801;53.018;11.560;2022-09-27T09:16:10;13.50;78.50
13458;DHT22;6801;53.018;11.560;2022-09-27T09:18:59;13.60;78.20
13458;DHT22;6801;53.018;11.560;2022-09-27T09:21:58;13.60;78.00
13458;DHT22;6801;53.018;11.560;2022-09-27T09:24:41;13.60;77.90
13458;DHT22;6801;53.018;11.560;2022-09-27T09:27:18;13.60;77.80
13458;DHT22;6801;53.018;11.560;2022-09-27T09:30:18;13.60;77.80
13458;DHT22;6801;53.018;11.560;2022-09-27T09:33:08;13.60;77.70
13458;DHT22;6801;53.018;11.560;2022-09-27T09:35:43;13.50;77.60
13458;DHT22;6801;53.018;11.560;2022-09-27T09:38:15;13.50;77.50
13458;DHT22;6801;53.018;11.560;2022-09-27T09:40:47;13.50;77.50
13458;DHT22;6801;53.018;11.560;2022-09-27T09:43:20;13.50;77.40
13458;DHT22;6801;53.018;11.560;2022-09-27T09:45:56;13.50;77.60
13458;DHT22;6801;53.018;11.560;2022-09-27T09:48:30;13.50;77.90
13458;DHT22;6801;53.018;11.560;2022-09-27T09:50:59;13.60;78.00
13458;DHT22;6801;53.018;11.560;2022-09-27T09:53:35;13.50;77.90
13458;DHT22;6801;53.018;11.560;2022-09-27T09:56:08;13.50;77.90
13458;DHT22;6801;53.018;11.560;2022-09-27T09:58:42;13.60;78.00
13458;DHT22;6801;53.018;11.560;2022-09-27T10:01:17;13.50;78.10
13458;DHT22;6801;53.018;11.560;2022-09-27T10:03:45;13.50;78.10
13458;DHT22;6801;53.018;11.560;2022-09-27T10:06:15;13.50;78.10
13458;DHT22;6801;53.018;11.560;2022-09-27T10:08:42;13.50;78.00
13458;DHT22;6801;53.018;11.560;2022-09-27T10:11:35;13.50;77.90
13458;DHT22;6801;53.018;11.560;2022-09-27T10:14:18;13.50;77.90
13458;DHT22;6801;53.018;11.560;2022-09-27T10:16:48;13.50;78.00
13458;DHT22;6801;53.018;11.560;2022-09-27T10:19:20;13.50;78.10
13458;DHT22;6801;53.018;11.560;2022-09-27T10:21:51;13.50;78.10
13458;DHT22;6801;53.018;11.560;2022-09-27T10:24:19;13.50;78.10
13458;DHT22;6801;53.018;11.560;2022-09-27T10:26:59;13.50;78.20
13458;DHT22;6801;53.018;11.560;2022-09-27T10:29:31;13.50;78.20
13458;DHT22;6801;53.018;11.560;2022-09-27T10:31:59;13.50;78.10
13458;DHT22;6801;53.018;11.560;2022-09-27T10:34:39;13.50;78.00
13458;DHT22;6801;53.018;11.560;2022-09-27T10:37:15;13.50;77.90
13458;DHT22;6801;53.018;11.560;2022-09-27T10:39:57;13.50;78.10
13458;DHT22;6801;53.018;11.560;2022-09-27T10:42:35;13.50;77.90
13458;DHT22;6801;53.018;11.560;2022-09-27T10:45:27;13.50;77.20
13458;DHT22;6801;53.018;11.560;2022-09-27T10:48:04;13.40;77.00
13458;DHT22;6801;53.018;11.560;2022-09-27T10:50:38;13.40;77.20
13458;DHT22;6801;53.018;11.560;2022-09-27T10:53:24;13.40;77.40
13458;DHT22;6801;53.018;11.560;2022-09-27T10:56:03;13.40;77.60
13458;DHT22;6801;53.018;11.560;2022-09-27T10:58:33;13.40;77.80
13458;DHT22;6801;53.018;11.560;2022-09-27T11:01:06;13.40;78.10
13458;DHT22;6801;53.018;11.560;2022-09-27T11:03:54;13.40;78.40
13458;DHT22;6801;53.018;11.560;2022-09-27T11:06:28;13.40;78.60
13458;DHT22;6801;53.018;11.560;2022-09-27T11:09:10;13.50;79.10
13458;DHT22;6801;53.018;11.560;2022-09-27T11:11:43;13.50;79.30
13458;DHT22;6801;53.018;11.560;2022-09-27T11:14:19;13.50;79.10
13458;DHT22;6801;53.018;11.560;2022-09-27T11:17:02;13.50;79.10
13458;DHT22;6801;53.018;11.560;2022-09-27T11:19:55;13.60;79.00
13458;DHT22;6801;53.018;11.560;2022-09-27T11:22:40;13.60;78.60
13458;DHT22;6801;53.018;11.560;2022-09-27T11:25:19;13.60;78.40
13458;DHT22;6801;53.018;11.560;2022-09-27T11:28:02;13.60;78.20
13458;DHT22;6801;53.018;11.560;2022-09-27T11:30:41;13.60;78.30
13458;DHT22;6801;53.018;11.560;2022-09-27T11:33:45;13.60;78.30
13458;DHT22;6801;53.018;11.560;2022-09-27T11:36:27;13.60;78.30
13458;DHT22;6801;53.018;11.560;2022-09-27T11:39:03;13.60;78.40
13458;DHT22;6801;53.018;11.560;2022-09-27T11:41:45;13.70;78.30
13458;DHT22;6801;53.018;11.560;2022-09-27T11:44:17;13.70;78.30
13458;DHT22;6801;53.018;11.560;2022-09-27T11:46:53;13.70;78.30
13458;DHT22;6801;53.018;11.560;2022-09-27T11:52:32;13.60;77.80
13458;DHT22;6801;53.018;11.560;2022-09-27T11:55:14;13.60;77.70
13458;DHT22;6801;53.018;11.560;2022-09-27T11:57:53;13.60;77.60
13458;DHT22;6801;53.018;11.560;2022-09-27T12:00:24;13.60;77.50
13458;DHT22;6801;53.018;11.560;2022-09-27T12:03:51;13.60;77.30
13458;DHT22;6801;53.018;11.560;2022-09-27T12:06:33;13.60;77.30
13458;DHT22;6801;53.018;11.560;2022-09-27T12:09:05;13.60;77.30
13458;DHT22;6801;53.018;11.560;2022-09-27T12:11:38;13.50;77.40
13458;DHT22;6801;53.018;11.560;2022-09-27T12:14:15;13.60;77.40
13458;DHT22;6801;53.018;11.560;2022-09-27T12:16:46;13.60;77.60
13458;DHT22;6801;53.018;11.560;2022-09-27T12:19:18;13.60;77.60
13458;DHT22;6801;53.018;11.560;2022-09-27T12:22:18;13.60;77.60
13458;DHT22;6801;53.018;11.560;2022-09-27T12:24:49;13.60;77.70
13458;DHT22;6801;53.018;11.560;2022-09-27T12:27:42;13.60;77.60
13458;DHT22;6801;53.018;11.560;2022-09-27T12:30:16;13.70;77.50
13458;DHT22;6801;53.018;11.560;2022-09-27T12:32:51;13.70;77.50
13458;DHT22;6801;53.018;11.560;2022-09-27T12:35:24;13.60;77.50
13458;DHT22;6801;53.018;11.560;2022-09-27T12:37:57;13.60;77.60
13458;DHT22;6801;53.018;11.560;2022-09-27T12:40:30;13.60;77.70
13458;DHT22;6801;53.018;11.560;2022-09-27T12:43:05;13.60;77.80
13458;DHT22;6801;53.018;11.560;2022-09-27T12:46:04;13.70;77.90
13458;DHT22;6801;53.018;11.560;2022-09-27T12:48:41;13.70;78.00
13458;DHT22;6801;53.018;11.560;2022-09-27T12:51:12;13.70;78.10
13458;DHT22;6801;53.018;11.560;2022-09-27T12:53:53;13.70;78.10
13458;DHT22;6801;53.018;11.560;2022-09-27T12:56:39;13.80;78.10
13458;DHT22;6801;53.018;11.560;2022-09-27T12:59:20;13.90;78.10
13458;DHT22;6801;53.018;11.560;2022-09-27T13:02:11;13.90;78.00
13458;DHT22;6801;53.018;11.560;2022-09-27T13:05:03;13.90;77.90
13458;DHT22;6801;53.018;11.560;2022-09-27T13:07:35;13.90;77.80
13458;DHT22;6801;53.018;11.560;2022-09-27T13:10:31;13.90;77.70
13458;DHT22;6801;53.018;11.560;2022-09-27T13:13:09;13.90;77.70
13458;DHT22;6801;53.018;11.560;2022-09-27T13:15:37;13.90;77.60
13458;DHT22;6801;53.018;11.560;2022-09-27T13:18:20;13.90;77.70
13458;DHT22;6801;53.018;11.560;2022-09-27T13:20:54;13.90;77.60
13458;DHT22;6801;53.018;11.560;2022-09-27T13:23:49;13.90;77.60
13458;DHT22;6801;53.018;11.560;2022-09-27T13:26:39;13.90;77.50
13458;DHT22;6801;53.018;11.560;2022-09-27T13:29:24;13.90;77.50
13458;DHT22;6801;53.018;11.560;2022-09-27T13:32:17;13.90;77.40
13458;DHT22;6801;53.018;11.560;2022-09-27T13:35:10;14.00;77.30
13458;DHT22;6801;53.018;11.560;2022-09-27T13:37:49;14.00;77.30
13458;DHT22;6801;53.018;11.560;2022-09-27T13:40:31;13.90;77.30
13458;DHT22;6801;53.018;11.560;2022-09-27T13:43:53;13.90;77.30
13458;DHT22;6801;53.018;11.560;2022-09-27T13:46:45;14.00;77.30
13458;DHT22;6801;53.018;11.560;2022-09-27T13:49:20;14.00;77.20
13458;DHT22;6801;53.018;11.560;2022-09-27T13:52:13;14.00;77.10
13458;DHT22;6801;53.018;11.560;2022-09-27T13:54:56;14.00;76.90
13458;DHT22;6801;53.018;11.560;2022-09-27T13:57:41;13.90;76.60
13458;DHT22;6801;53.018;11.560;2022-09-27T14:00:18;13.90;76.40
13458;DHT22;6801;53.018;11.560;2022-09-27T14:02:56;13.90;76.50
13458;DHT22;6801;53.018;11.560;2022-09-27T14:05:29;13.90;76.60
13458;DHT22;6801;53.018;11.560;2022-09-27T14:07:57;13.90;76.70
13458;DHT22;6801;53.018;11.560;2022-09-27T14:10:28;13.90;76.80
13458;DHT22;6801;53.018;11.560;2022-09-27T14:12:58;13.90;76.80
13458;DHT22;6801;53.018;11.560;2022-09-27T14:15:29;13.80;76.70
13458;DHT22;6801;53.018;11.560;2022-09-27T14:18:00;13.80;76.80
13458;DHT22;6801;53.018;11.560;2022-09-27T14:20:36;13.80;77.00
13458;DHT22;6801;53.018;11.560;2022-09-27T14:23:15;13.90;77.10
13458;DHT22;6801;53.018;11.560;2022-09-27T14:25:45;13.80;77.10
13458;DHT22;6801;53.018;11.560;2022-09-27T14:28:21;13.80;77.10
13458;DHT22;6801;53.018;11.560;2022-09-27T14:31:13;13.90;77.20
13458;DHT22;6801;53.018;11.560;2022-09-27T14:34:05;13.90;77.20
13458;DHT22;6801;53.018;11.560;2022-09-27T14:36:35;13.90;77.20
13458;DHT22;6801;53.018;11.560;2022-09-27T14:39:25;13.90;77.20
13458;DHT22;6801;53.018;11.560;2022-09-27T14:41:59;13.90;77.20
13458;DHT22;6801;53.018;11.560;2022-09-27T14:44:26;13.90;77.20
13458;DHT22;6801;53.018;11.560;2022-09-27T14:47:09;14.00;77.30
13458;DHT22;6801;53.018;11.560;2022-09-27T14:49:45;13.90;77.40
13458;DHT22;6801;53.018;11.560;2022-09-27T14:52:16;14.00;77.40
13458;DHT22;6801;53.018;11.560;2022-09-27T14:55:04;14.00;77.50
13458;DHT22;6801;53.018;11.560;2022-09-27T14:57:32;14.00;77.40
13458;DHT22;6801;53.018;11.560;2022-09-27T15:00:13;14.00;77.40
13458;DHT22;6801;53.018;11.560;2022-09-27T15:02:42;14.00;77.50
13458;DHT22;6801;53.018;11.560;2022-09-27T15:05:14;14.00;77.40
13458;DHT22;6801;53.018;11.560;2022-09-27T15:07:42;14.00;77.40
13458;DHT22;6801;53.018;11.560;2022-09-27T15:10:13;14.10;77.30
13458;DHT22;6801;53.018;11.560;2022-09-27T15:12:43;14.10;77.30
13458;DHT22;6801;53.018;11.560;2022-09-27T15:15:15;14.10;77.20
13458;DHT22;6801;53.018;11.560;2022-09-27T15:17:45;14.10;77.00
13458;DHT22;6801;53.018;11.560;2022-09-27T15:20:22;14.10;76.40
13458;DHT22;6801;53.018;11.560;2022-09-27T15:22:50;14.00;74.90
13458;DHT22;6801;53.018;11.560;2022-09-27T15:25:21;14.00;75.50
13458;DHT22;6801;53.018;11.560;2022-09-27T15:27:51;14.00;75.90
13458;DHT22;6801;53.018;11.560;2022-09-27T15:30:24;14.00;75.90
13458;DHT22;6801;53.018;11.560;2022-09-27T15:32:54;14.00;76.00
13458;DHT22;6801;53.018;11.560;2022-09-27T15:35:25;14.00;76.00
13458;DHT22;6801;53.018;11.560;2022-09-27T15:38:09;13.90;76.00
13458;DHT22;6801;53.018;11.560;2022-09-27T15:41:09;13.90;76.10
13458;DHT22;6801;53.018;11.560;2022-09-27T15:43:39;13.90;76.10
13458;DHT22;6801;53.018;11.560;2022-09-27T15:46:26;13.90;76.30
13458;DHT22;6801;53.018;11.560;2022-09-27T15:49:21;13.90;76.40
13458;DHT22;6801;53.018;11.560;2022-09-27T15:51:49;13.90;76.50
13458;DHT22;6801;53.018;11.560;2022-09-27T15:54:18;13.90;76.50
13458;DHT22;6801;53.018;11.560;2022-09-27T15:56:45;13.90;76.10
13458;DHT22;6801;53.018;11.560;2022-09-27T15:59:19;13.90;76.20
13458;DHT22;6801;53.018;11.560;2022-09-27T16:01:47;13.90;76.00
13458;DHT22;6801;53.018;11.560;2022-09-27T16:04:17;13.80;76.00
13458;DHT22;6801;53.018;11.560;2022-09-27T16:06:45;13.80;75.90
13458;DHT22;6801;53.018;11.560;2022-09-27T16:09:14;13.80;75.70
13458;DHT22;6801;53.018;11.560;2022-09-27T16:11:44;13.80;75.40
13458;DHT22;6801;53.018;11.560;2022-09-27T16:14:11;13.80;75.50
13458;DHT22;6801;53.018;11.560;2022-09-27T16:16:42;13.70;75.40
13458;DHT22;6801;53.018;11.560;2022-09-27T16:19:09;13.70;75.60
13458;DHT22;6801;53.018;11.560;2022-09-27T16:21:36;13.70;75.70
13458;DHT22;6801;53.018;11.560;2022-09-27T16:24:05;13.70;75.90
13458;DHT22;6801;53.018;11.560;2022-09-27T16:26:33;13.60;76.00
13458;DHT22;6801;53.018;11.560;2022-09-27T16:28:59;13.70;76.00